createdAt,value
2018-08-10T23:16:34.045Z,28.50
2018-08-10T23:17:34.682Z,28.40
2018-08-10T23:18:33.978Z,28.45
2018-08-10T23:19:33.939Z,28.36
2018-08-10T23:20:34.688Z,28.54
2018-08-10T23:21:33.855Z,28.46
2018-08-10T23:22:35.678Z,28.48
2018-08-10T23:23:34.197Z,28.43
2018-08-10T23:24:35.667Z,28.48
2018-08-10T23:25:33.696Z,28.52
2018-08-10T23:26:34.178Z,28.35
2018-08-10T23:27:33.612Z,28.23
2018-08-10T23:28:34.196Z,28.14
2018-08-10T23:29:33.564Z,28.20
2018-08-10T23:30:33.565Z,28.25
2018-08-10T23:32:24.459Z,28.21
2018-08-10T23:33:24.436Z,28.36
2018-08-10T23:34:24.403Z,28.35
2018-08-10T23:35:24.397Z,28.39
2018-08-10T23:36:24.338Z,28.51
2018-08-10T23:37:24.297Z,28.50
2018-08-10T23:38:24.259Z,28.48
2018-08-10T23:39:24.210Z,28.50
2018-08-10T23:40:24.170Z,28.52
2018-08-10T23:41:25.102Z,28.54
2018-08-10T23:42:24.065Z,28.52
2018-08-10T23:43:24.021Z,28.54
2018-08-10T23:44:23.976Z,28.54
2018-08-10T23:45:23.912Z,28.57
2018-08-10T23:46:23.853Z,28.52
2018-08-10T23:47:23.835Z,28.46
2018-08-10T23:48:23.745Z,28.51
2018-08-10T23:49:23.705Z,28.48
2018-08-10T23:50:23.640Z,28.48
2018-08-10T23:51:23.574Z,28.50
2018-08-10T23:52:23.556Z,28.45
2018-08-10T23:53:23.607Z,28.45
2018-08-10T23:54:24.437Z,28.43
2018-08-10T23:55:23.336Z,28.52
2018-08-10T23:56:24.100Z,28.52
2018-08-10T23:57:24.224Z,28.45
2018-08-10T23:58:23.226Z,28.48
2018-08-10T23:59:23.146Z,28.48
